createdAt,value
2018-09-27T00:00:19.836Z,15.37
2018-09-27T00:03:23.767Z,15.35
2018-09-27T00:06:27.710Z,15.37
2018-09-27T00:09:31.668Z,15.33
2018-09-27T00:12:35.587Z,15.31
2018-09-27T00:15:39.547Z,15.31
2018-09-27T00:18:43.474Z,15.32
2018-09-27T00:21:47.439Z,15.26
2018-09-27T00:24:51.383Z,15.32
2018-09-27T00:27:55.334Z,15.32
2018-09-27T00:30:59.284Z,15.29
2018-09-27T00:34:03.574Z,15.32
2018-09-27T00:37:07.479Z,15.35
2018-09-27T00:40:11.426Z,15.30
2018-09-27T00:43:15.590Z,15.38
2018-09-27T00:46:19.538Z,15.34
2018-09-27T00:49:23.482Z,15.31
2018-09-27T00:52:27.419Z,15.38
2018-09-27T00:55:31.358Z,15.35
2018-09-27T00:58:35.291Z,15.34
2018-09-27T01:01:39.682Z,15.36
2018-09-27T01:04:43.654Z,15.32
2018-09-27T01:07:47.585Z,15.34
2018-09-27T01:10:51.715Z,15.32
2018-09-27T01:13:55.666Z,15.32
2018-09-27T01:16:59.619Z,15.35
2018-09-27T01:20:03.543Z,15.36
2018-09-27T01:23:07.487Z,15.35
2018-09-27T01:26:11.407Z,15.39
2018-09-27T01:29:15.362Z,15.36
2018-09-27T01:32:19.320Z,15.33
2018-09-27T01:35:23.582Z,15.32
2018-09-27T01:38:27.527Z,15.34
2018-09-27T01:41:31.459Z,15.36
2018-09-27T01:44:35.382Z,15.37
2018-09-27T01:47:39.639Z,15.36
2018-09-27T01:50:43.893Z,15.35
2018-09-27T01:53:47.838Z,15.42
2018-09-27T01:56:51.959Z,15.36
2018-09-27T01:59:55.907Z,15.34
2018-09-27T02:02:59.818Z,15.37
2018-09-27T02:06:03.782Z,15.46
2018-09-27T02:09:08.596Z,15.51
2018-09-27T02:12:12.535Z,15.50
2018-09-27T02:15:17.021Z,15.49
2018-09-27T02:18:20.970Z,15.53
2018-09-27T02:21:24.903Z,15.50
2018-09-27T02:24:28.864Z,15.51
2018-09-27T02:27:32.942Z,15.50
2018-09-27T02:30:37.380Z,15.59
2018-09-27T02:33:41.315Z,15.56
2018-09-27T02:36:45.614Z,15.49
2018-09-27T02:39:49.568Z,15.52
2018-09-27T02:42:53.515Z,15.49
2018-09-27T02:45:57.721Z,15.49
2018-09-27T02:49:02.042Z,15.48
2018-09-27T02:52:06.666Z,15.49
2018-09-27T02:55:10.847Z,15.56
2018-09-27T02:58:14.805Z,15.55
2018-09-27T03:01:18.726Z,15.51
2018-09-27T03:04:22.747Z,15.50
2018-09-27T03:07:26.910Z,15.52
2018-09-27T03:10:31.105Z,15.52
2018-09-27T03:13:35.046Z,15.54
2018-09-27T03:16:39.351Z,15.50
2018-09-27T03:19:43.526Z,15.49
2018-09-27T03:22:47.471Z,15.51
2018-09-27T03:25:51.409Z,15.50
2018-09-27T03:28:55.353Z,15.47
2018-09-27T03:31:59.294Z,15.49
2018-09-27T03:35:03.590Z,15.46
2018-09-27T03:38:08.123Z,15.45
2018-09-27T03:41:12.083Z,15.49
2018-09-27T03:44:16.228Z,15.49
2018-09-27T03:47:20.165Z,15.45
2018-09-27T03:50:24.438Z,15.48
2018-09-27T03:53:28.355Z,15.49
2018-09-27T03:56:32.298Z,15.44
2018-09-27T03:59:36.315Z,15.48
2018-09-27T04:02:40.283Z,15.44
2018-09-27T04:05:44.212Z,15.45
2018-09-27T04:08:48.138Z,15.40
2018-09-27T04:11:52.078Z,15.46
2018-09-27T04:14:56.042Z,15.39
2018-09-27T04:17:59.982Z,15.42
2018-09-27T04:21:03.913Z,15.41
2018-09-27T04:24:07.925Z,15.42
2018-09-27T04:27:12.344Z,15.39
2018-09-27T04:30:16.279Z,15.47
2018-09-27T04:33:20.222Z,15.40
2018-09-27T04:36:24.154Z,15.38
2018-09-27T04:39:28.114Z,15.35
2018-09-27T04:42:32.094Z,15.33
2018-09-27T04:45:36.131Z,15.33
2018-09-27T04:48:40.061Z,15.38
2018-09-27T04:51:44.051Z,15.36
2018-09-27T04:54:48.166Z,15.30
2018-09-27T04:57:52.289Z,15.30
2018-09-27T05:00:56.310Z,15.30
2018-09-27T05:04:00.239Z,15.29
2018-09-27T05:07:04.749Z,15.31
2018-09-27T05:10:08.746Z,15.30
2018-09-27T05:13:12.710Z,15.28
2018-09-27T05:16:16.654Z,15.27
2018-09-27T05:19:20.590Z,15.32
2018-09-27T05:22:24.519Z,15.32
2018-09-27T05:25:28.792Z,15.30
2018-09-27T05:28:32.771Z,15.27
2018-09-27T05:31:36.886Z,15.29
2018-09-27T05:34:40.824Z,15.27
2018-09-27T05:37:44.755Z,15.27
2018-09-27T05:40:48.905Z,15.27
2018-09-27T05:43:52.842Z,15.26
2018-09-27T05:46:56.965Z,15.27
2018-09-27T05:50:00.908Z,15.27
2018-09-27T05:53:05.119Z,15.26
2018-09-27T05:56:09.238Z,15.27
2018-09-27T05:59:13.191Z,15.26
2018-09-27T06:02:17.136Z,15.24
2018-09-27T06:05:21.064Z,15.25
2018-09-27T06:08:25.202Z,15.25
2018-09-27T06:11:29.184Z,15.30
2018-09-27T06:14:33.313Z,15.25
2018-09-27T06:17:37.253Z,15.24
2018-09-27T06:20:41.393Z,15.24
2018-09-27T06:23:45.326Z,15.25
2018-09-27T06:26:49.277Z,15.27
2018-09-27T06:29:53.228Z,15.27
2018-09-27T06:32:57.178Z,15.26
2018-09-27T06:36:01.175Z,15.29
2018-09-27T06:39:07.247Z,15.33
2018-09-27T06:42:11.418Z,15.34
2018-09-27T06:45:15.376Z,15.39
2018-09-27T06:48:19.425Z,15.41
2018-09-27T06:51:23.516Z,15.48
2018-09-27T06:54:27.549Z,15.43
2018-09-27T06:57:31.833Z,15.43
2018-09-27T07:00:36.126Z,15.42
2018-09-27T07:03:40.037Z,15.46
2018-09-27T07:06:43.990Z,15.43
2018-09-27T07:09:47.945Z,15.46
2018-09-27T07:12:51.994Z,15.45
2018-09-27T07:15:56.043Z,15.43
2018-09-27T07:18:59.965Z,15.45
2018-09-27T07:22:03.899Z,15.48
2018-09-27T07:25:07.916Z,15.48
2018-09-27T07:28:12.014Z,15.47
2018-09-27T07:31:15.942Z,15.49
2018-09-27T07:34:20.078Z,15.55
2018-09-27T07:37:24.015Z,15.52
2018-09-27T07:40:27.986Z,15.53
2018-09-27T07:43:32.106Z,15.56
2018-09-27T07:46:36.202Z,15.55
2018-09-27T07:49:40.143Z,15.48
2018-09-27T07:52:44.065Z,15.49
2018-09-27T07:55:47.994Z,15.53
2018-09-27T07:58:51.930Z,15.48
2018-09-27T08:01:56.053Z,15.46
2018-09-27T08:05:00.003Z,15.48
2018-09-27T08:08:04.291Z,15.52
2018-09-27T08:11:08.797Z,15.52
2018-09-27T08:14:12.883Z,15.58
2018-09-27T08:17:16.832Z,15.56
2018-09-27T08:20:21.306Z,15.57
2018-09-27T08:23:25.431Z,15.63
2018-09-27T08:26:29.409Z,15.72
2018-09-27T08:29:33.523Z,15.80
2018-09-27T08:32:37.533Z,15.90
2018-09-27T08:35:41.607Z,15.94
2018-09-27T08:38:45.615Z,16.00
2018-09-27T08:41:49.676Z,16.07
2018-09-27T08:44:53.754Z,16.14
2018-09-27T08:47:57.730Z,16.21
2018-09-27T08:51:01.664Z,16.27
2018-09-27T08:54:05.591Z,16.30
2018-09-27T08:57:09.506Z,16.39
2018-09-27T09:00:13.838Z,16.39
2018-09-27T09:03:17.869Z,16.47
2018-09-27T09:06:22.015Z,16.51
2018-09-27T09:09:26.212Z,16.55
2018-09-27T09:12:30.413Z,16.55
2018-09-27T09:15:34.421Z,16.53
2018-09-27T09:18:38.790Z,16.56
2018-09-27T09:21:42.814Z,16.60
2018-09-27T09:24:46.871Z,16.56
2018-09-27T09:27:50.827Z,16.59
2018-09-27T09:30:54.733Z,16.68
2018-09-27T09:33:58.654Z,16.74
2018-09-27T09:37:02.592Z,16.76
2018-09-27T09:40:06.543Z,16.77
2018-09-27T09:43:10.487Z,16.87
2018-09-27T09:46:15.078Z,16.90
2018-09-27T09:49:19.388Z,16.94
2018-09-27T09:52:23.354Z,17.01
2018-09-27T09:55:27.467Z,17.04
2018-09-27T09:58:31.577Z,17.10
2018-09-27T10:01:35.848Z,17.14
2018-09-27T10:04:39.775Z,17.13
2018-09-27T10:07:43.711Z,17.20
2018-09-27T10:10:47.974Z,17.23
2018-09-27T10:13:51.902Z,17.18
2018-09-27T10:16:55.929Z,17.26
2018-09-27T10:19:59.835Z,17.26
2018-09-27T10:23:03.762Z,17.37
2018-09-27T10:26:07.690Z,17.40
2018-09-27T10:29:11.610Z,17.46
2018-09-27T10:32:15.546Z,17.51
2018-09-27T10:35:19.819Z,17.54
2018-09-27T10:38:23.789Z,17.59
2018-09-27T10:41:27.732Z,17.65
2018-09-27T10:44:31.643Z,17.62
2018-09-27T10:47:35.571Z,17.74
2018-09-27T10:50:39.486Z,17.77
2018-09-27T10:53:43.479Z,18.00
2018-09-27T10:56:47.649Z,17.98
2018-09-27T10:59:51.811Z,18.04
2018-09-27T11:02:55.889Z,18.21
2018-09-27T11:06:00.413Z,18.27
2018-09-27T11:09:07.427Z,18.23
2018-09-27T11:12:11.399Z,18.25
2018-09-27T11:15:15.696Z,18.31
2018-09-27T11:18:19.610Z,18.32
2018-09-27T11:21:23.878Z,18.32
2018-09-27T11:24:27.815Z,18.36
2018-09-27T11:27:31.736Z,18.38
2018-09-27T11:30:35.922Z,18.62
2018-09-27T11:33:39.844Z,18.63
2018-09-27T11:36:43.785Z,18.74
2018-09-27T11:39:47.720Z,18.74
2018-09-27T11:42:51.651Z,18.74
2018-09-27T11:45:55.779Z,18.72
2018-09-27T11:48:59.808Z,18.77
2018-09-27T11:52:04.203Z,18.85
2018-09-27T11:55:08.227Z,18.89
2018-09-27T11:58:12.271Z,18.84
2018-09-27T12:01:16.203Z,18.99
2018-09-27T12:04:20.344Z,19.00
2018-09-27T12:07:24.323Z,19.05
2018-09-27T12:10:28.411Z,19.00
2018-09-27T12:13:32.483Z,19.01
2018-09-27T12:16:36.527Z,19.07
2018-09-27T12:19:41.066Z,19.10
2018-09-27T12:22:45.130Z,19.10
2018-09-27T12:25:49.392Z,19.05
2018-09-27T12:28:53.319Z,19.09
2018-09-27T12:31:57.259Z,19.08
2018-09-27T12:35:01.184Z,19.05
2018-09-27T12:38:05.111Z,19.01
2018-09-27T12:41:09.034Z,18.97
2018-09-27T12:44:12.974Z,18.94
2018-09-27T12:47:16.934Z,18.96
2018-09-27T12:50:20.866Z,19.02
2018-09-27T12:53:25.141Z,19.03
2018-09-27T12:56:29.215Z,19.01
2018-09-27T12:59:33.137Z,19.08
2018-09-27T13:02:37.088Z,19.06
2018-09-27T13:05:41.244Z,19.02
2018-09-27T13:08:45.406Z,19.07
2018-09-27T13:11:49.588Z,19.10
2018-09-27T13:14:53.692Z,19.03
2018-09-27T13:17:57.818Z,19.04
2018-09-27T13:21:01.810Z,19.08
2018-09-27T13:24:05.765Z,19.10
2018-09-27T13:27:10.360Z,19.16
2018-09-27T13:30:14.450Z,19.25
2018-09-27T13:33:18.854Z,19.25
2018-09-27T13:36:22.792Z,19.35
2018-09-27T13:39:26.726Z,19.41
2018-09-27T13:42:30.778Z,19.47
2018-09-27T13:45:34.710Z,19.37
2018-09-27T13:48:38.653Z,19.30
2018-09-27T13:51:42.579Z,19.38
2018-09-27T13:54:46.518Z,19.31
2018-09-27T13:57:50.454Z,19.32
2018-09-27T14:00:54.443Z,19.32
2018-09-27T14:03:58.540Z,19.25
2018-09-27T14:07:02.786Z,19.28
2018-09-27T14:10:06.753Z,19.24
2018-09-27T14:13:10.698Z,19.22
2018-09-27T14:16:14.621Z,19.19
2018-09-27T14:19:18.860Z,19.23
2018-09-27T14:22:22.798Z,19.22
2018-09-27T14:25:26.743Z,19.21
2018-09-27T14:28:30.691Z,19.22
2018-09-27T14:31:34.770Z,19.19
2018-09-27T14:34:38.695Z,19.19
2018-09-27T14:37:42.630Z,19.18
2018-09-27T14:40:46.620Z,19.18
2018-09-27T14:43:50.707Z,19.17
2018-09-27T14:46:54.645Z,19.14
2018-09-27T14:49:58.646Z,19.10
2018-09-27T14:53:02.800Z,19.11
2018-09-27T14:56:06.819Z,19.07
2018-09-27T14:59:10.902Z,19.05
2018-09-27T15:02:14.939Z,19.02
2018-09-27T15:05:19.027Z,19.15
2018-09-27T15:08:22.999Z,19.15
2018-09-27T15:11:26.955Z,19.04
2018-09-27T15:14:30.968Z,19.00
2018-09-27T15:17:35.187Z,19.05
2018-09-27T15:20:39.170Z,19.02
2018-09-27T15:23:43.147Z,18.98
2018-09-27T15:26:47.434Z,18.95
2018-09-27T15:29:51.374Z,18.92
2018-09-27T15:32:55.665Z,18.97
2018-09-27T15:35:59.615Z,18.90
2018-09-27T15:39:05.090Z,18.93
2018-09-27T15:42:09.349Z,18.87
2018-09-27T15:45:13.462Z,18.84
2018-09-27T15:48:17.730Z,18.79
2018-09-27T15:51:21.715Z,18.79
2018-09-27T15:54:25.979Z,18.83
2018-09-27T15:57:30.231Z,18.80
2018-09-27T16:00:34.155Z,18.76
2018-09-27T16:03:38.419Z,18.73
2018-09-27T16:06:42.399Z,18.76
2018-09-27T16:09:46.506Z,18.74
2018-09-27T16:12:50.479Z,18.76
2018-09-27T16:15:54.405Z,18.72
2018-09-27T16:18:58.332Z,18.73
2018-09-27T16:22:02.294Z,18.67
2018-09-27T16:25:06.785Z,18.68
2018-09-27T16:28:10.694Z,18.64
2018-09-27T16:31:14.818Z,18.66
2018-09-27T16:34:18.764Z,18.63
2018-09-27T16:37:23.231Z,18.77
2018-09-27T16:40:27.192Z,18.66
2018-09-27T16:43:31.320Z,18.60
2018-09-27T16:46:35.252Z,18.55
2018-09-27T16:49:39.174Z,18.53
2018-09-27T16:52:43.114Z,18.52
2018-09-27T16:55:47.047Z,18.52
2018-09-27T16:58:50.983Z,18.48
2018-09-27T17:01:55.257Z,18.39
2018-09-27T17:04:59.386Z,18.36
2018-09-27T17:08:03.317Z,18.22
2018-09-27T17:11:09.160Z,18.21
2018-09-27T17:14:13.274Z,18.19
2018-09-27T17:17:17.247Z,18.16
2018-09-27T17:20:21.199Z,18.09
2018-09-27T17:23:25.170Z,18.07
2018-09-27T17:26:29.282Z,18.02
2018-09-27T17:29:33.242Z,18.02
2018-09-27T17:32:37.357Z,17.98
2018-09-27T17:35:41.329Z,17.96
2018-09-27T17:38:45.431Z,17.95
2018-09-27T17:41:49.371Z,17.91
2018-09-27T17:44:53.323Z,17.91
2018-09-27T17:47:57.256Z,17.86
2018-09-27T17:51:01.202Z,17.83
2018-09-27T17:54:05.139Z,17.82
2018-09-27T17:57:09.102Z,17.80
2018-09-27T18:00:13.047Z,17.78
2018-09-27T18:03:16.985Z,17.77
2018-09-27T18:06:20.952Z,17.74
2018-09-27T18:09:24.874Z,17.75
2018-09-27T18:12:28.814Z,17.70
2018-09-27T18:15:32.760Z,17.64
2018-09-27T18:18:36.700Z,17.56
2018-09-27T18:21:40.772Z,17.53
2018-09-27T18:24:44.995Z,17.47
2018-09-27T18:27:48.921Z,17.46
2018-09-27T18:30:52.875Z,17.39
2018-09-27T18:33:56.834Z,17.36
2018-09-27T18:37:00.781Z,17.30
2018-09-27T18:40:05.264Z,17.26
2018-09-27T18:43:09.619Z,17.19
2018-09-27T18:46:14.095Z,17.13
2018-09-27T18:49:18.027Z,17.06
2018-09-27T18:52:21.963Z,16.98
2018-09-27T18:55:26.099Z,16.91
2018-09-27T18:58:30.046Z,16.81
2018-09-27T19:01:34.006Z,16.74
2018-09-27T19:04:37.980Z,16.65
2018-09-27T19:07:41.934Z,16.58
2018-09-27T19:10:45.877Z,16.53
2018-09-27T19:13:49.841Z,16.50
2018-09-27T19:16:54.138Z,16.45
2018-09-27T19:19:58.173Z,16.43
2018-09-27T19:23:02.463Z,16.41
2018-09-27T19:26:07.229Z,16.35
2018-09-27T19:29:11.510Z,16.33
2018-09-27T19:32:15.459Z,16.30
2018-09-27T19:35:19.419Z,16.27
2018-09-27T19:38:23.346Z,16.25
2018-09-27T19:41:27.295Z,16.22
2018-09-27T19:44:31.486Z,16.23
2018-09-27T19:47:35.434Z,16.23
2018-09-27T19:50:39.369Z,16.22
2018-09-27T19:53:43.311Z,16.20
2018-09-27T19:56:47.260Z,16.18
2018-09-27T19:59:51.200Z,16.13
2018-09-27T20:02:55.139Z,16.12
2018-09-27T20:05:59.074Z,16.12
2018-09-27T20:09:03.242Z,16.08
2018-09-27T20:12:07.176Z,16.08
2018-09-27T20:15:11.122Z,16.07
2018-09-27T20:18:15.060Z,16.07
2018-09-27T20:21:19.322Z,16.06
2018-09-27T20:24:23.262Z,16.06
2018-09-27T20:27:27.204Z,16.05
2018-09-27T20:30:31.678Z,16.04
2018-09-27T20:33:35.661Z,16.02
2018-09-27T20:36:39.608Z,16.03
2018-09-27T20:39:43.551Z,16.02
2018-09-27T20:42:47.495Z,16.09
2018-09-27T20:45:51.413Z,16.07
2018-09-27T20:48:55.356Z,16.06
2018-09-27T20:51:59.286Z,16.06
2018-09-27T20:55:03.266Z,16.10
2018-09-27T20:58:07.538Z,16.10
2018-09-27T21:01:11.474Z,16.16
2018-09-27T21:04:15.417Z,16.17
2018-09-27T21:07:19.553Z,16.14
2018-09-27T21:10:23.509Z,16.16
2018-09-27T21:13:27.441Z,16.18
2018-09-27T21:16:31.366Z,16.11
2018-09-27T21:19:35.312Z,16.10
2018-09-27T21:22:39.555Z,16.07
2018-09-27T21:25:43.514Z,16.05
2018-09-27T21:28:47.438Z,16.05
2018-09-27T21:31:51.506Z,16.03
2018-09-27T21:34:55.468Z,16.08
2018-09-27T21:37:59.399Z,16.06
2018-09-27T21:41:03.339Z,16.04
2018-09-27T21:44:07.307Z,16.05
2018-09-27T21:47:11.229Z,16.05
2018-09-27T21:50:15.348Z,16.04
2018-09-27T21:53:19.378Z,16.02
2018-09-27T21:56:23.339Z,16.05
2018-09-27T21:59:27.273Z,16.03
2018-09-27T22:02:31.205Z,16.04
2018-09-27T22:05:35.143Z,16.11
2018-09-27T22:08:39.058Z,16.11
2018-09-27T22:11:43.065Z,16.15
2018-09-27T22:14:47.011Z,16.12
2018-09-27T22:17:50.992Z,16.11
2018-09-27T22:20:55.215Z,16.08
2018-09-27T22:23:59.226Z,16.08
2018-09-27T22:27:03.256Z,16.10
2018-09-27T22:30:08.056Z,16.04
2018-09-27T22:33:12.002Z,16.06
2018-09-27T22:36:15.934Z,16.01
2018-09-27T22:39:20.215Z,15.96
2018-09-27T22:42:24.130Z,15.96
2018-09-27T22:45:28.107Z,15.89
2018-09-27T22:48:32.059Z,15.90
2018-09-27T22:51:36.030Z,15.83
2018-09-27T22:54:39.983Z,15.86
2018-09-27T22:57:43.915Z,15.78
2018-09-27T23:00:47.870Z,15.80
2018-09-27T23:03:51.819Z,15.78
2018-09-27T23:06:55.841Z,15.76
2018-09-27T23:09:59.871Z,15.75
2018-09-27T23:13:03.891Z,15.80
2018-09-27T23:16:07.969Z,15.70
2018-09-27T23:19:12.357Z,15.66
2018-09-27T23:22:16.599Z,15.61
2018-09-27T23:25:20.877Z,15.58
2018-09-27T23:28:25.120Z,15.54
2018-09-27T23:31:29.464Z,15.50
2018-09-27T23:34:33.768Z,15.48
2018-09-27T23:37:38.654Z,15.37
2018-09-27T23:40:43.199Z,15.40
2018-09-27T23:43:47.383Z,15.35
2018-09-27T23:46:51.515Z,15.26
2018-09-27T23:49:55.730Z,15.25
2018-09-27T23:52:59.869Z,15.13
2018-09-27T23:56:04.201Z,15.04
2018-09-27T23:59:08.421Z,15.07
